Aeroporto :
LOGIN :

Iscrizione | Disclaimer

   EN    FR    IT 

 










Sommario :    VFR   VFR Marginale   IFR   IFR Intensivo   IFR Molto Intensivo
Visibilità : 
Base nubi : 
>= 8 km
>= 3000ft
5 / 8 km
1000 / 3000 ft
1500m / 5 km
500 / 1000 ft
800 / 1500m
200 / 500 ft
< 800m
< 200 ft
Simboli :   Temporali  Nebbia  Neve Forte  Precipitazioni Forti  Vento > 20 kt
SIGMETs :   Varie  Temporali  Ghiacco  Turbolenza  Onda orograficha  Ceneri Vulcaniche






- Altitudine del aeroporto : 788 ft
- Codice IATA : DCM


LFCK - Castres-Mazamet

ULTIMO METAR :
  • 242130Z AUTO 11008KT CAVOK 07/06 Q1022 NOSIG

METARs OBSOLETI :
  • 242100Z AUTO 09007KT CAVOK 07/06 Q1022 NOSIG
  • 242030Z AUTO 11008KT CAVOK 08/06 Q1022 NOSIG
  • 242000Z AUTO 10008KT CAVOK 08/06 Q1022 NOSIG
  • 241930Z AUTO 11007KT CAVOK 09/06 Q1022 NOSIG
  • 241900Z AUTO 11010KT CAVOK 09/06 Q1022 NOSIG

TAF TAF LFCK
Valido dal 24 a 18 ore il 25 a 03 ore UTC


241700Z 2418/2503 12010KT CAVOK



MetMap, La meteo Aeronautica in un colpo d'occhio ! - Copyright ORBIFLY Dicembre 2007 - Disclaimer

ORBIFLY MET'MAP TEAM :

Programmazione e sviluppo : Alexandra Zaïnal
Concezione : Baudouin d'Aumeries
Aiuto per la programmazione : Marc-Olivier Méhu
Supporto tecnico e logistico : Manuel Goepfert
Aiuto per la traduzione : Arnaldo La Scala

Contatto : metmap@orbifly.com




FONTI E CREDITI :

   NOAA